SBBVSBPJ

Guest
Details From SBBV - Boa Vista Intl
To SBPJ - Tocantins
Flight Number -
Tags Generated
Created
Modified
Stats Distance 1,081 nm / 2,001 km
Max Altitude 0 ft / 0 m
Waypoints 4
Social Downloads 3
Likes 0
Share VATSIM

Download

Looking for another format? Having issues loading an existing format? Contact us
Advertisement - Login to hide

Notes

Generated

Route

SBBV LODOK PMS SBPJ

ID Type Via Altitude Latitude Longitude Leg Dist Tot Dist Heading (true) Name
O SBBV APT - 0 ft / 0 m 2.84077˚ -60.70090˚ - 0 nm - -
LODOK FIX - 0 ft / 0 m -0.66600˚ -57.78800˚ 273 nm 273 nm 140° / 140° -
PMS NDB - 0 ft / 0 m -10.29069˚ -48.36586˚ 806 nm 1080 nm 136° / 135° PALMAS NDB
O SBPJ APT - 0 ft / 0 m -10.28524˚ -48.36642˚ 0 nm 1080 nm 354° / 354° -

Altitude Profile

Advertisement - Login to hide

Weather


0- 5 10 15 20 25 30 35+ Temperature / ° C

Clouds and Precipitation
Forecast for 2018-05-23 00:00 UTC. Updated 35 minutes ago

Ground ~20,000 ft ~40,000 ft Winds

SBBV

Details ICAO SBBV (BVB)
Name Boa Vista Intl
Region Brazil
Timezone America/Boa_Vista (UTC-4.0)
Stats Elevation 275 ft / 84 m (AMSL)
Location 2.846311° -60.690068°
Runways 1
Magnetic Variation 15.458° W

METAR

SBBV 222300Z 14006KT 9999 FEW030 FEW035TCU SCT080 30/23 Q1011

Decode

TAF

TAF SBBV 221600Z 2218/2318 09015KT 9999 SCT035 FEW040TCU TN24/2306Z TX32/2318Z BECMG 2222/2224 06005KT FEW020 BECMG 2308/2310 09005KT BECMG 2315/2317 06008KT SCT030 FEW035TCU RMK PCQ

Decode

Departure Runways

ID Width Length Bearing (true) Bearing (mag) Surface Threshold Offset Overrun Length
08 148 ft / 45 m 8,871 ft / 2,704 m 62.88° 78.34° Asphalt 300 ft / 91 m 0 ft / 0 m
26 148 ft / 45 m 8,871 ft / 2,704 m 242.88° 258.34° Asphalt 300 ft / 91 m 0 ft / 0 m

SBPJ

Details ICAO SBPJ (PMW)
Name Tocantins
Region Brazil
Timezone America/Araguaina (UTC-3.0)
Stats Elevation 774 ft / 236 m (AMSL)
Location -10.291524° -48.356972°
Runways 1
Magnetic Variation 21.285° W

METAR

Not found

TAF

TAF SBPJ 221600Z 2218/2306 19004KT 9999 FEW035 FEW040TCU TX33/2218Z TN25/2305Z PROB30 2220/2223 TS FEW030 FEW035CB BECMG 2221/2223 17003KT FEW030 RMK PEJ

Decode

Destination Runways

ID Width Length Bearing (true) Bearing (mag) Surface Threshold Offset Overrun Length
14 148 ft / 45 m 8,194 ft / 2,497 m 124.06° 145.34° Asphalt 0 ft / 0 m 0 ft / 0 m
32 148 ft / 45 m 8,194 ft / 2,497 m 304.06° 325.34° Asphalt 0 ft / 0 m 0 ft / 0 m

Popular Alternatives